Time;durP1;ratioP1;P1;durP2;ratioP2;P2;SDS_P1;SDS_P2;PMS_P1;PMS_P2;Temp;Humidity;BMP_temperature;BMP_pressure;BME280_temperature;BME280_humidity;BME280_pressure;Samples;Min_cycle;Max_cycle;Signal;HPM_P1;HPM_P2
2024/02/04 00:00:42;;;;;;;;;;;;;;;;;;;;;
2024/02/04 00:08:00;;;;;;;;;;;;;;;;;;;;;
2024/02/04 01:51:24;;;;;;;0.00;0.00;;;;;;;12.25;54.14;100249.25;4136750;34;34669;-85
2024/02/04 01:54:38;;;;;;;0.00;0.00;;;;;;;12.30;54.33;100252.56;4141061;34;33564;-87
2024/02/04 01:57:13;;;;;;;0.00;0.00;;;;;;;12.24;55.13;100245.72;4183056;34;33383;-86
2024/02/04 01:59:44;;;;;;;0.00;0.00;;;;;;;11.93;56.04;100243.56;4189872;33;32962;-86
2024/02/04 02:02:15;;;;;;;0.00;0.00;;;;;;;11.95;56.55;100254.91;4199850;33;32759;-85
2024/02/04 02:04:44;;;;;;;0.00;0.00;;;;;;;11.77;57.07;100253.00;4206691;33;33882;-85
2024/02/04 02:07:15;;;;;;;0.00;0.00;;;;;;;11.91;56.83;100250.69;4199617;33;33809;-86
2024/02/04 02:09:43;;;;;;;0.00;0.00;;;;;;;11.89;57.13;100246.38;4201563;33;33539;-85
2024/02/04 02:12:17;;;;;;;0.00;0.00;;;;;;;12.14;56.37;100238.25;4209583;33;32815;-86
2024/02/04 02:15:00;;;;;;;0.10;0.10;;;;;;;11.76;57.44;100232.78;4205163;33;33153;-85
2024/02/04 02:17:52;;;;;;;0.00;0.00;;;;;;;12.09;56.56;100229.66;4212993;33;33174;-85
2024/02/04 02:20:31;;;;;;;0.00;0.00;;;;;;;11.99;57.33;100230.06;4213320;33;34026;-85
2024/02/04 02:23:12;;;;;;;0.90;0.28;;;;;;;12.09;56.94;100221.72;4206799;33;34692;-85
2024/02/04 02:25:43;;;;;;;0.00;0.00;;;;;;;11.84;57.80;100228.06;4195082;33;33739;-85
2024/02/04 02:28:15;;;;;;;0.32;0.20;;;;;;;11.87;57.38;100227.94;4212440;33;34194;-85
2024/02/04 02:30:44;;;;;;;0.10;0.00;;;;;;;11.77;58.00;100229.19;4189723;33;33882;-86
2024/02/04 02:33:14;;;;;;;0.00;0.00;;;;;;;11.70;58.20;100228.59;4200296;33;34866;-85
2024/02/04 02:35:46;;;;;;;;;;;;;;;12.04;57.43;100229.84;4207149;33;33467;-85
2024/02/04 02:38:44;;;;;;;0.08;0.08;;;;;;;12.12;57.05;100240.97;4190130;33;34399;-85
2024/02/04 02:41:14;;;;;;;0.00;0.00;;;;;;;11.88;57.78;100242.88;4210619;33;33053;-85
2024/02/04 02:43:50;;;;;;;0.35;0.35;;;;;;;12.39;56.31;100235.41;4200447;33;34968;-85
2024/02/04 02:46:20;;;;;;;0.00;0.00;;;;;;;12.18;56.77;100237.19;4211586;33;34978;-85
2024/02/04 02:48:53;;;;;;;0.00;0.00;;;;;;;11.90;57.71;100233.09;4199769;33;34074;-85
2024/02/04 02:51:24;;;;;;;0.00;0.00;;;;;;;11.87;57.67;100233.25;4213603;33;34343;-85
2024/02/04 02:53:53;;;;;;;0.00;0.00;;;;;;;11.95;57.32;100236.41;4224354;33;34595;-85
2024/02/04 02:56:23;;;;;;;2.17;1.27;;;;;;;11.78;57.93;100250.31;4205403;33;33222;-85
2024/02/04 02:58:52;;;;;;;0.10;0.10;;;;;;;11.91;57.40;100257.75;4212957;33;32949;-85
2024/02/04 03:01:23;;;;;;;0.05;0.05;;;;;;;11.81;57.34;100233.44;4203774;33;32919;-85
2024/02/04 03:03:54;;;;;;;;;;;;;;;11.72;57.58;100231.16;4210401;33;34837;-86
2024/02/04 03:06:24;;;;;;;2.17;0.10;;;;;;;11.88;57.42;100223.50;4226285;33;33686;-85
2024/02/04 03:08:54;;;;;;;0.00;0.00;;;;;;;11.40;58.93;100214.84;4198993;33;33470;-86
2024/02/04 03:11:25;;;;;;;0.43;0.32;;;;;;;11.49;58.32;100211.84;4223693;33;34738;-85
2024/02/04 03:13:56;;;;;;;0.00;0.00;;;;;;;11.46;58.39;100204.03;4202717;33;33522;-85
2024/02/04 03:16:26;;;;;;;0.20;0.20;;;;;;;11.60;58.60;100213.19;4201049;33;34752;-85
2024/02/04 03:18:56;;;;;;;0.43;0.43;;;;;;;11.63;58.46;100228.91;4219176;33;33942;-86
2024/02/04 03:21:27;;;;;;;0.37;0.27;;;;;;;11.38;59.87;100229.91;4213757;33;32797;-86
2024/02/04 03:23:58;;;;;;;0.10;0.10;;;;;;;11.35;nan;100229.19;4213045;33;33750;-85
2024/02/04 03:26:27;;;;;;;0.00;0.00;;;;;;;11.12;61.27;100227.44;4202896;33;34175;-85
2024/02/04 03:28:58;;;;;;;0.00;0.00;;;;;;;11.06;61.17;100243.53;4223374;33;32487;-85
2024/02/04 03:31:27;;;;;;;0.22;0.22;;;;;;;10.95;61.59;100239.53;4213560;33;32266;-85
2024/02/04 03:33:57;;;;;;;0.00;0.00;;;;;;;10.89;61.89;100244.19;4223390;33;33730;-86
2024/02/04 03:36:26;;;;;;;0.00;0.00;;;;;;;11.09;61.22;100235.50;4212697;33;33100;-86
2024/02/04 03:38:54;;;;;;;0.00;0.00;;;;;;;11.25;60.42;100231.31;4212576;33;32945;-85
2024/02/04 03:41:24;;;;;;;0.00;0.00;;;;;;;11.51;59.86;100217.91;4214652;33;33766;-86
2024/02/04 03:43:55;;;;;;;0.05;0.05;;;;;;;11.17;60.80;100236.06;4213423;33;34270;-85
2024/02/04 03:46:24;;;;;;;0.00;0.00;;;;;;;11.40;59.90;100232.50;4213040;33;34084;-86
2024/02/04 03:48:53;;;;;;;0.00;0.00;;;;;;;11.51;59.42;100257.59;4216046;33;34108;-86
2024/02/04 03:51:22;;;;;;;0.00;0.00;;;;;;;11.31;60.20;100265.47;4211361;33;34444;-86
2024/02/04 03:53:52;;;;;;;0.00;0.00;;;;;;;11.43;60.08;100259.66;4212647;33;33510;-86
2024/02/04 03:56:24;;;;;;;0.00;0.00;;;;;;;10.99;61.21;100267.56;4203761;33;33341;-86
2024/02/04 03:58:53;;;;;;;;;;;;;;;11.18;60.84;100264.22;4237975;33;33296;-87
2024/02/04 04:01:32;;;;;;;0.00;0.00;;;;;;;11.73;59.17;100262.03;4226205;33;32804;-87
2024/02/04 04:04:34;;;;;;;0.00;0.00;;;;;;;11.77;58.89;100258.28;4196766;33;32581;-87
2024/02/04 04:07:22;;;;;;;0.37;0.37;;;;;;;11.68;59.08;100270.13;4224155;33;32801;-87
2024/02/04 04:10:13;;;;;;;0.00;0.00;;;;;;;11.94;58.27;100277.03;4240471;33;33475;-87
2024/02/04 04:13:04;;;;;;;0.00;0.00;;;;;;;11.98;58.32;100265.38;4222584;33;32662;-87
2024/02/04 04:15:59;;;;;;;0.15;0.15;;;;;;;11.99;57.83;100271.53;4234118;33;34526;-85
2024/02/04 04:18:51;;;;;;;0.00;0.00;;;;;;;12.02;57.94;100276.72;4206446;33;35003;-85
2024/02/04 04:21:35;;;;;;;0.10;0.10;;;;;;;11.94;57.71;100269.09;4203561;33;33599;-85
2024/02/04 04:24:06;;;;;;;0.80;0.15;;;;;;;11.89;58.09;100268.41;4228551;33;33876;-86
2024/02/04 04:26:41;;;;;;;0.88;0.52;;;;;;;12.15;57.21;100259.34;4210853;33;32683;-86
2024/02/04 04:29:51;;;;;;;0.20;0.17;;;;;;;12.12;57.39;100254.22;4224209;33;34287;-86
2024/02/04 04:32:58;;;;;;;0.00;0.00;;;;;;;12.04;57.59;100243.94;4228787;33;32566;-86
2024/02/04 04:36:10;;;;;;;;;;;;;;;;;;;;;
2024/02/04 04:39:20;;;;;;;0.62;0.40;;;;;;;12.07;57.64;100255.34;4216322;33;34629;-86
2024/02/04 04:42:41;;;;;;;0.10;0.10;;;;;;;12.02;57.47;100248.47;4194369;34;34711;-84
2024/02/04 04:46:11;;;;;;;0.00;0.00;;;;;;;11.48;59.63;100257.69;4183558;34;35682;-84
2024/02/04 04:50:01;;;;;;;2.17;0.20;;;;;;;11.67;59.26;100251.66;4190170;34;35079;-83
2024/02/04 04:52:42;;;;;;;0.77;0.08;;;;;;;11.49;59.63;100254.16;4185426;34;33091;-83
2024/02/04 04:55:16;;;;;;;0.08;0.08;;;;;;;11.35;60.31;100243.28;4194251;34;33551;-84
2024/02/04 04:58:04;;;;;;;0.00;0.00;;;;;;;11.53;59.72;100252.22;4183970;34;35054;-85
2024/02/04 05:00:34;;;;;;;3.97;0.32;;;;;;;11.56;59.70;100259.19;4189388;33;35139;-86
2024/02/04 05:03:04;;;;;;;0.00;0.00;;;;;;;11.47;60.03;100240.13;4193943;33;33611;-85
2024/02/04 05:05:33;;;;;;;0.20;0.20;;;;;;;11.29;60.69;100235.56;4189637;33;33766;-85
2024/02/04 05:08:03;;;;;;;0.60;0.60;;;;;;;11.32;60.75;100235.44;4213686;33;33482;-86
2024/02/04 05:10:33;;;;;;;0.00;0.00;;;;;;;11.53;59.73;100242.50;4209175;34;33983;-86
2024/02/04 05:13:05;;;;;;;0.13;0.10;;;;;;;11.59;59.53;100243.22;4214045;33;34289;-86
2024/02/04 05:15:36;;;;;;;0.68;0.62;;;;;;;11.79;59.03;100236.16;4214296;33;33967;-85
2024/02/04 05:18:06;;;;;;;0.10;0.10;;;;;;;11.90;58.50;100227.78;4204874;33;33657;-85
2024/02/04 05:20:35;;;;;;;0.00;0.00;;;;;;;11.81;59.07;100233.44;4224913;33;33297;-86
2024/02/04 05:23:03;;;;;;;2.17;0.40;;;;;;;11.54;59.70;100230.16;4212134;33;34771;-86
2024/02/04 05:25:33;;;;;;;1.27;1.20;;;;;;;11.08;61.48;100244.34;4188330;33;33567;-86
2024/02/04 05:28:02;;;;;;;0.10;0.10;;;;;;;11.02;61.72;100237.53;4195218;33;34309;-86
2024/02/04 05:30:30;;;;;;;0.08;0.08;;;;;;;11.21;61.27;100227.09;4207834;33;33737;-86
2024/02/04 05:33:01;;;;;;;0.00;0.00;;;;;;;11.18;61.48;100232.50;4191121;33;34940;-85
2024/02/04 05:35:30;;;;;;;0.00;0.00;;;;;;;10.96;62.21;100228.03;4222953;33;33857;-85
2024/02/04 05:38:00;;;;;;;0.28;0.28;;;;;;;10.72;62.90;100226.31;4196007;33;34891;-85
2024/02/04 05:40:30;;;;;;;;;;;;;;;10.84;62.79;100232.94;4223811;33;34280;-85
2024/02/04 05:43:05;;;;;;;0.30;0.30;;;;;;;11.18;61.55;100216.63;4211415;33;34388;-85
2024/02/04 05:45:40;;;;;;;0.20;0.00;;;;;;;10.83;62.97;100226.78;4202511;33;33133;-85
2024/02/04 05:48:11;;;;;;;0.10;0.10;;;;;;;10.73;63.16;100228.06;4198948;33;34916;-85
2024/02/04 05:50:41;;;;;;;0.10;0.10;;;;;;;10.89;63.00;100231.84;4224176;33;36500;-85
2024/02/04 05:53:11;;;;;;;1.20;1.02;;;;;;;10.97;62.54;100224.47;4209154;33;34167;-85
2024/02/04 05:55:40;;;;;;;0.50;0.47;;;;;;;10.96;62.47;100228.03;4187734;33;34808;-85
2024/02/04 05:58:13;;;;;;;0.20;0.20;;;;;;;10.93;62.79;100227.31;4212726;33;33923;-86
2024/02/04 06:00:42;;;;;;;0.30;0.30;;;;;;;10.98;62.51;100241.19;4208750;33;33207;-85
2024/02/04 06:03:14;;;;;;;0.10;0.10;;;;;;;10.69;63.67;100247.59;4200281;34;33889;-85
2024/02/04 06:05:43;;;;;;;0.32;0.20;;;;;;;10.72;63.43;100247.44;4203735;33;34669;-85
2024/02/04 06:08:13;;;;;;;0.00;0.00;;;;;;;10.91;62.97;100240.56;4213410;33;34289;-85
2024/02/04 06:10:42;;;;;;;0.00;0.00;;;;;;;10.85;63.06;100235.50;4208349;33;34057;-85
2024/02/04 06:13:11;;;;;;;0.00;0.00;;;;;;;10.58;63.68;100252.38;4190854;33;33531;-85
2024/02/04 06:15:41;;;;;;;0.70;0.70;;;;;;;10.55;63.98;100252.50;4216591;33;34759;-85
2024/02/04 06:18:13;;;;;;;0.13;0.13;;;;;;;11.03;62.35;100255.09;4209203;33;34813;-85
2024/02/04 06:20:43;;;;;;;0.25;0.20;;;;;;;10.65;63.64;100253.87;4224110;33;33563;-84
2024/02/04 06:23:16;;;;;;;0.50;0.50;;;;;;;10.73;63.28;100254.47;4209531;33;33852;-83
2024/02/04 06:25:51;;;;;;;0.00;0.00;;;;;;;10.56;63.85;100254.22;4224141;33;34263;-84
2024/02/04 06:28:28;;;;;;;0.37;0.10;;;;;;;10.72;63.40;100250.94;4201049;33;34005;-84
2024/02/04 06:31:18;;;;;;;0.00;0.00;;;;;;;10.44;63.90;100245.84;4203813;33;33123;-84
2024/02/04 06:34:22;;;;;;;0.20;0.20;;;;;;;10.88;62.47;100260.97;4223282;33;34307;-84
2024/02/04 06:36:54;;;;;;;0.00;0.00;;;;;;;10.93;62.51;100257.22;4226511;33;33494;-84
2024/02/04 06:39:23;;;;;;;0.05;0.05;;;;;;;10.54;63.96;100266.59;4211420;33;34089;-84
2024/02/04 06:41:54;;;;;;;0.00;0.00;;;;;;;11.06;62.35;100275.22;4191790;33;33468;-84
2024/02/04 06:44:26;;;;;;;0.20;0.20;;;;;;;11.00;61.96;100271.06;4192768;33;34257;-84
2024/02/04 06:47:09;;;;;;;0.10;0.10;;;;;;;10.77;63.18;100287.75;4216741;33;34748;-84
2024/02/04 06:49:48;;;;;;;0.00;0.00;;;;;;;10.96;62.24;100296.72;4237441;33;33127;-84
2024/02/04 06:52:23;;;;;;;0.00;0.00;;;;;;;10.98;62.26;100283.47;4213256;33;33048;-84
2024/02/04 06:55:24;;;;;;;0.00;0.00;;;;;;;10.90;62.40;100291.69;4198394;33;33808;-84
2024/02/04 06:58:09;;;;;;;0.10;0.10;;;;;;;11.08;62.04;100297.19;4207783;33;33965;-84
2024/02/04 07:00:45;;;;;;;0.10;0.10;;;;;;;11.26;61.46;100293.84;4225543;33;34206;-83
2024/02/04 07:03:22;;;;;;;0.25;0.25;;;;;;;11.31;60.78;100285.75;4201537;33;33525;-84
2024/02/04 07:05:53;;;;;;;0.10;0.00;;;;;;;11.49;60.54;100292.97;4205384;33;34851;-85
2024/02/04 07:08:27;;;;;;;0.15;0.15;;;;;;;11.28;60.85;100297.28;4204248;33;33324;-84
2024/02/04 07:11:07;;;;;;;0.20;0.20;;;;;;;11.29;60.80;100293.72;4217201;33;34255;-84
2024/02/04 07:13:58;;;;;;;0.00;0.00;;;;;;;11.35;60.67;100306.72;4207244;33;33450;-84
2024/02/04 07:16:28;;;;;;;0.00;0.00;;;;;;;11.15;61.57;100302.16;4209944;33;34424;-84
2024/02/04 07:19:23;;;;;;;0.10;0.10;;;;;;;11.31;61.20;100302.47;4202434;33;34595;-84
2024/02/04 07:21:58;;;;;;;2.60;0.65;;;;;;;11.41;60.31;100298.53;4214091;33;33470;-84
2024/02/04 07:24:35;;;;;;;0.57;0.57;;;;;;;11.34;60.68;100290.91;4224026;33;33722;-84
2024/02/04 07:27:25;;;;;;;0.95;0.60;;;;;;;10.92;61.92;100284.56;4215367;33;34668;-86
2024/02/04 07:30:08;;;;;;;0.00;0.00;;;;;;;11.68;60.14;100270.13;4225268;33;34117;-86
2024/02/04 07:32:46;;;;;;;0.77;0.37;;;;;;;11.63;60.22;100273.88;4225009;33;35158;-86
2024/02/04 07:35:29;;;;;;;0.00;0.00;;;;;;;11.76;59.77;100278.59;4226619;33;33941;-86
2024/02/04 07:38:03;;;;;;;0.00;0.00;;;;;;;11.25;61.29;100281.53;4215487;33;33387;-85
2024/02/04 07:40:42;;;;;;;0.00;0.00;;;;;;;11.31;61.16;100286.59;4188525;33;34121;-85
2024/02/04 07:43:21;;;;;;;0.00;0.00;;;;;;;11.45;60.47;100284.28;4234794;33;33606;-85
2024/02/04 07:45:51;;;;;;;0.00;0.00;;;;;;;11.72;59.84;100292.88;4217147;33;33748;-84
2024/02/04 07:48:28;;;;;;;0.00;0.00;;;;;;;11.41;60.88;100302.97;4204441;33;33995;-86
2024/02/04 07:51:37;;;;;;;0.00;0.00;;;;;;;11.61;60.25;100295.09;4206421;33;33286;-86
2024/02/04 07:54:11;;;;;;;0.00;0.00;;;;;;;11.77;59.93;100290.03;4229523;33;33526;-86
2024/02/04 08:00:10;;;;;;;0.10;0.10;;;;;;;11.72;59.95;100297.31;4211901;33;33558;-85
2024/02/04 08:03:53;;;;;;;0.00;0.00;;;;;;;11.89;59.57;100301.97;4226348;33;34447;-85
2024/02/04 08:27:16;;;;;;;0.00;0.00;;;;;;;11.76;59.66;100281.25;4225106;33;35418;-81
2024/02/04 08:29:45;;;;;;;0.10;0.08;;;;;;;11.90;59.19;100272.78;4216439;33;36770;-81
2024/02/04 08:32:35;;;;;;;0.00;0.00;;;;;;;11.78;59.46;100286.50;4212121;33;34801;-81
2024/02/04 08:35:16;;;;;;;0.00;0.00;;;;;;;11.95;59.19;100288.47;4202062;33;33929;-81
2024/02/04 08:37:59;;;;;;;0.20;0.10;;;;;;;11.83;59.15;100287.19;4222968;33;33522;-81
2024/02/04 08:40:41;;;;;;;0.15;0.15;;;;;;;12.18;58.35;100291.00;4228860;33;34320;-81
2024/02/04 08:43:22;;;;;;;0.00;0.00;;;;;;;12.49;57.58;100295.88;4212241;33;33461;-81
2024/02/04 08:46:30;;;;;;;0.28;0.28;;;;;;;12.33;58.04;100299.22;4219070;33;33224;-81
2024/02/04 08:49:02;;;;;;;0.13;0.10;;;;;;;12.38;57.45;100311.34;4212947;33;34990;-81
2024/02/04 08:51:31;;;;;;;0.00;0.00;;;;;;;12.72;56.34;100301.91;4215201;33;35164;-81
2024/02/04 08:53:58;;;;;;;0.00;0.00;;;;;;;12.51;56.90;100303.72;4201130;33;33416;-81
2024/02/04 08:56:26;;;;;;;0.00;0.00;;;;;;;12.39;57.06;100298.94;4220678;33;33786;-80
2024/02/04 08:58:54;;;;;;;0.32;0.32;;;;;;;12.49;56.72;100306.47;4200760;33;33604;-81
2024/02/04 09:01:22;;;;;;;0.10;0.10;;;;;;;12.46;56.95;100295.13;4208059;33;31790;-81
2024/02/04 09:03:52;;;;;;;0.00;0.00;;;;;;;12.53;56.49;100297.44;4215405;33;32373;-81
2024/02/04 09:07:45;;;;;;;;;;;;;;;;;;;;;
2024/02/04 09:11:18;;;;;;;;;;;;;;;;;;;;;
2024/02/04 09:14:45;;;;;;;0.00;0.00;;;;;;;12.39;56.78;100267.16;4178662;34;34944;-81
2024/02/04 09:17:31;;;;;;;0.05;0.03;;;;;;;12.25;57.13;100254.56;4160100;34;33895;-81
2024/02/04 09:20:24;;;;;;;0.10;0.10;;;;;;;12.61;56.00;100243.25;4150589;34;33692;-81
2024/02/04 09:23:06;;;;;;;0.20;0.20;;;;;;;13.02;54.99;100255.47;4181277;34;34174;-81
2024/02/04 09:26:06;;;;;;;0.00;0.00;;;;;;;13.66;53.25;100253.34;4160032;34;33475;-81
2024/02/04 09:28:43;;;;;;;1.27;0.75;;;;;;;13.06;54.73;100264.16;4170934;34;33798;-81
2024/02/04 09:31:16;;;;;;;0.10;0.10;;;;;;;13.49;53.47;100251.53;4170883;34;33563;-81
2024/02/04 09:34:21;;;;;;;0.00;0.00;;;;;;;13.33;53.87;100270.81;4171215;34;32139;-81
2024/02/04 09:39:07;;;;;;;;;;;;;;;;;;;;;
2024/02/04 09:42:54;;;;;;;;;;;;;;;;;;;;;
2024/02/04 09:46:25;;;;;;;0.00;0.00;;;;;;;13.43;53.45;100268.59;4069581;35;32029;-81
2024/02/04 09:49:37;;;;;;;0.00;0.00;;;;;;;13.67;52.82;100257.72;4106551;34;33725;-81
2024/02/04 09:52:32;;;;;;;0.00;0.00;;;;;;;13.56;53.03;100275.03;4101336;34;33610;-81
2024/02/04 09:55:34;;;;;;;0.00;0.00;;;;;;;13.65;53.09;100268.41;4155373;34;33162;-82
2024/02/04 10:09:54;;;;;;;0.08;0.08;;;;;;;13.72;52.51;100253.94;4199213;33;34350;-82
2024/02/04 10:13:15;;;;;;;0.00;0.00;;;;;;;13.86;51.88;100250.56;4193551;33;32756;-83
2024/02/04 10:16:20;;;;;;;0.00;0.00;;;;;;;14.36;50.67;100249.78;4051171;33;5749913;-82
2024/02/04 10:18:56;;;;;;;0.00;0.00;;;;;;;14.80;49.08;100247.44;4186299;33;34386;-83
2024/02/04 10:21:25;;;;;;;1.20;0.20;;;;;;;14.67;49.63;100241.09;4214321;33;32953;-82
2024/02/04 10:23:53;;;;;;;0.10;0.10;;;;;;;14.63;49.52;100228.06;4225501;33;32768;-82
2024/02/04 10:26:21;;;;;;;0.10;0.10;;;;;;;14.47;49.67;100239.44;4215528;33;36313;-83
2024/02/04 10:28:49;;;;;;;0.00;0.00;;;;;;;14.57;48.63;100246.06;4224669;33;33946;-82
2024/02/04 10:31:17;;;;;;;0.17;0.17;;;;;;;14.21;49.93;100234.66;4214667;33;34111;-82
2024/02/04 10:33:44;;;;;;;0.00;0.00;;;;;;;14.69;48.69;100235.69;4213152;33;33155;-83
2024/02/04 10:36:13;;;;;;;0.47;0.22;;;;;;;15.19;47.76;100224.06;4201108;33;33864;-83
2024/02/04 10:38:41;;;;;;;0.00;0.00;;;;;;;15.23;47.67;100217.63;4214249;33;34851;-83
2024/02/04 10:41:17;;;;;;;0.00;0.00;;;;;;;15.76;46.08;100213.72;4192527;33;33431;-83
2024/02/04 10:43:45;;;;;;;0.05;0.05;;;;;;;15.40;46.69;100212.22;4227766;33;34129;-82
2024/02/04 10:46:20;;;;;;;0.20;0.20;;;;;;;14.85;47.80;100209.97;4214511;33;33660;-83
2024/02/04 10:48:55;;;;;;;0.00;0.00;;;;;;;14.76;48.11;100208.69;4211001;33;34739;-83
2024/02/04 10:51:27;;;;;;;0.20;0.00;;;;;;;14.69;47.84;100225.06;4202163;34;32045;-82
2024/02/04 10:53:58;;;;;;;0.10;0.00;;;;;;;14.67;47.99;100216.28;4198093;33;32564;-83
2024/02/04 10:56:34;;;;;;;0.00;0.00;;;;;;;14.53;48.32;100201.97;4214279;33;33668;-84
2024/02/04 10:59:06;;;;;;;0.62;0.08;;;;;;;15.04;47.22;100200.03;4212407;33;33455;-84
2024/02/04 11:01:33;;;;;;;0.00;0.00;;;;;;;14.81;48.08;100197.78;4223779;33;34853;-87
2024/02/04 11:04:02;;;;;;;0.00;0.00;;;;;;;14.70;48.16;100184.25;4205616;33;31965;-86
2024/02/04 11:06:30;;;;;;;0.10;0.10;;;;;;;14.97;47.56;100169.44;4211415;33;33898;-87
2024/02/04 11:09:00;;;;;;;0.10;0.10;;;;;;;14.87;47.16;100186.00;4221831;33;33153;-86
2024/02/04 11:11:28;;;;;;;0.00;0.00;;;;;;;15.13;46.96;100181.88;4203356;33;32399;-85
2024/02/04 11:13:58;;;;;;;0.00;0.00;;;;;;;15.18;47.12;100174.47;4204885;33;32490;-85
2024/02/04 11:16:52;;;;;;;0.05;0.05;;;;;;;15.34;47.37;100180.66;4201325;33;34176;-85
2024/02/04 11:19:30;;;;;;;0.05;0.05;;;;;;;15.36;46.42;100171.63;4212372;33;31757;-84
2024/02/04 11:22:17;;;;;;;0.20;0.17;;;;;;;15.70;46.01;100182.16;4228073;33;33461;-85
2024/02/04 11:25:21;;;;;;;0.00;0.00;;;;;;;15.01;46.81;100178.97;4224669;33;32764;-84
2024/02/04 11:27:49;;;;;;;0.00;0.00;;;;;;;14.91;47.49;100177.75;4228544;33;34155;-85
2024/02/04 11:30:17;;;;;;;0.08;0.08;;;;;;;15.33;46.64;100174.47;4226545;33;33898;-84
2024/02/04 11:32:46;;;;;;;0.00;0.00;;;;;;;15.50;45.45;100184.13;4189122;33;34212;-84
2024/02/04 11:35:14;;;;;;;0.00;0.00;;;;;;;15.72;45.02;100177.62;4217210;33;33205;-84
2024/02/04 11:37:44;;;;;;;0.00;0.00;;;;;;;16.04;44.85;100165.87;4216127;33;34364;-84
2024/02/04 11:40:18;;;;;;;0.00;0.00;;;;;;;16.51;42.98;100156.75;4216238;34;34361;-84
2024/02/04 11:42:47;;;;;;;0.20;0.20;;;;;;;16.32;43.42;100174.84;4228537;33;34505;-83
2024/02/04 11:45:16;;;;;;;0.00;0.00;;;;;;;16.03;43.62;100150.84;4223626;33;34654;-84
2024/02/04 11:47:44;;;;;;;0.00;0.00;;;;;;;16.06;43.59;100156.00;4219701;33;33800;-84
2024/02/04 11:50:12;;;;;;;0.00;0.00;;;;;;;16.22;43.29;100149.72;4200072;33;32938;-85
2024/02/04 11:52:41;;;;;;;0.10;0.10;;;;;;;16.28;43.11;100147.53;4201620;33;34530;-84
2024/02/04 11:55:13;;;;;;;0.00;0.00;;;;;;;16.61;42.47;100139.22;4194392;33;31911;-84
2024/02/04 11:57:42;;;;;;;0.00;0.00;;;;;;;16.60;41.84;100136.66;4217907;33;32311;-83
2024/02/04 12:00:11;;;;;;;0.00;0.00;;;;;;;16.45;42.57;100142.97;4202931;33;33536;-83
2024/02/04 12:02:39;;;;;;;0.00;0.00;;;;;;;16.38;42.35;100139.84;4225786;33;33631;-83
2024/02/04 12:05:07;;;;;;;0.00;0.00;;;;;;;16.64;42.57;100120.38;4211691;33;33251;-83
2024/02/04 12:07:35;;;;;;;0.00;0.00;;;;;;;16.44;41.98;100125.28;4202564;33;33708;-83
2024/02/04 12:10:06;;;;;;;0.47;0.47;;;;;;;16.64;41.91;100115.06;4214829;33;33998;-83
2024/02/04 12:12:34;;;;;;;0.00;0.00;;;;;;;16.85;41.60;100104.87;4207941;33;33856;-83
2024/02/04 12:15:04;;;;;;;0.25;0.25;;;;;;;16.73;40.90;100110.12;4200020;33;32293;-84
2024/02/04 12:17:32;;;;;;;0.10;0.10;;;;;;;17.14;40.69;100094.94;4214130;33;32968;-83
2024/02/04 12:20:00;;;;;;;0.00;0.00;;;;;;;17.01;40.88;100104.72;4213609;33;33821;-83
2024/02/04 12:22:29;;;;;;;0.00;0.00;;;;;;;16.93;41.03;100106.16;4202872;33;34649;-83
2024/02/04 12:24:58;;;;;;;0.13;0.08;;;;;;;17.13;41.38;100111.03;4203833;33;32287;-83
2024/02/04 12:27:26;;;;;;;0.00;0.00;;;;;;;17.03;42.01;100121.47;4218103;33;33234;-83
2024/02/04 12:29:54;;;;;;;0.15;0.10;;;;;;;16.27;42.89;100124.50;4224679;33;32763;-83
2024/02/04 12:32:22;;;;;;;0.00;0.00;;;;;;;16.37;42.74;100114.97;4221894;33;34289;-83
2024/02/04 12:34:53;;;;;;;0.20;0.20;;;;;;;16.39;42.72;100130.88;4212243;33;32745;-83
2024/02/04 12:37:22;;;;;;;;;;;;;;;16.71;42.35;100127.97;4215454;33;34008;-83
2024/02/04 12:39:49;;;;;;;0.10;0.00;;;;;;;17.00;41.95;100136.84;4223394;33;35679;-83
2024/02/04 12:42:21;;;;;;;0.00;0.00;;;;;;;16.86;42.09;100140.41;4213344;33;34573;-83
2024/02/04 12:44:49;;;;;;;0.00;0.00;;;;;;;16.22;43.39;100149.72;4203876;33;32779;-83
2024/02/04 12:47:19;;;;;;;0.20;0.20;;;;;;;16.65;42.79;100142.56;4224540;33;34281;-83
2024/02/04 12:49:47;;;;;;;0.00;0.00;;;;;;;16.79;42.59;100141.72;4226430;33;33831;-83
2024/02/04 12:52:21;;;;;;;0.00;0.00;;;;;;;16.49;43.27;100133.84;4212607;33;33133;-83
2024/02/04 12:54:50;;;;;;;0.00;0.00;;;;;;;16.15;43.93;100135.94;4213680;33;31801;-83
2024/02/04 12:57:23;;;;;;;0.00;0.00;;;;;;;16.01;44.17;100128.78;4215760;33;34047;-83
2024/02/04 12:59:51;;;;;;;0.32;0.32;;;;;;;15.58;45.23;100133.13;4200948;33;32163;-83
2024/02/04 13:02:21;;;;;;;0.00;0.00;;;;;;;16.18;44.01;100129.53;4213798;33;33047;-83
2024/02/04 13:04:48;;;;;;;0.00;0.00;;;;;;;15.88;44.78;100114.50;4222313;33;33880;-83
2024/02/04 13:07:18;;;;;;;0.00;0.00;;;;;;;16.09;45.07;100126.53;4223814;33;34550;-83
2024/02/04 13:09:58;;;;;;;0.10;0.10;;;;;;;15.72;45.55;100129.69;4216263;33;33341;-83
2024/02/04 13:12:26;;;;;;;0.00;0.00;;;;;;;15.43;46.85;100132.25;4218960;33;34177;-83
2024/02/04 13:14:54;;;;;;;0.00;0.00;;;;;;;16.10;45.54;100130.88;4208401;33;32696;-83
2024/02/04 13:17:21;;;;;;;0.00;0.00;;;;;;;15.83;45.27;100125.41;4212528;33;33324;-83
2024/02/04 13:19:49;;;;;;;0.00;0.00;;;;;;;15.75;45.81;100121.50;4223957;33;34853;-84
2024/02/04 13:22:17;;;;;;;0.00;0.00;;;;;;;15.31;46.00;100119.63;4212694;33;34606;-83
2024/02/04 13:24:45;;;;;;;0.10;0.10;;;;;;;15.37;46.28;100113.94;4224498;33;32462;-83
2024/02/04 13:27:13;;;;;;;0.00;0.00;;;;;;;15.47;46.00;100115.13;4202646;33;33880;-83
2024/02/04 13:29:41;;;;;;;0.10;0.10;;;;;;;15.32;46.74;100116.03;4212583;33;34010;-83
2024/02/04 13:32:09;;;;;;;0.00;0.00;;;;;;;15.46;46.45;100100.09;4222269;33;33729;-83
2024/02/04 13:34:37;;;;;;;0.13;0.00;;;;;;;15.71;46.08;100094.19;4211682;33;32546;-83
2024/02/04 13:37:05;;;;;;;0.00;0.00;;;;;;;16.03;45.62;100086.91;4212936;33;33758;-83
2024/02/04 13:39:32;;;;;;;0.00;0.00;;;;;;;15.77;45.78;100071.69;4213607;33;34063;-83
2024/02/04 13:42:00;;;;;;;0.00;0.00;;;;;;;15.50;46.18;100069.69;4210550;34;32961;-83
2024/02/04 13:44:28;;;;;;;0.00;0.00;;;;;;;15.41;46.34;100082.69;4227709;33;33285;-83
2024/02/04 13:46:56;;;;;;;0.00;0.00;;;;;;;15.80;46.03;100083.00;4212834;33;32779;-83
2024/02/04 13:49:23;;;;;;;0.00;0.00;;;;;;;15.57;46.08;100073.72;4214056;33;34442;-83
2024/02/04 13:51:51;;;;;;;0.00;0.00;;;;;;;15.36;46.63;100077.66;4211455;33;33043;-83
2024/02/04 13:54:20;;;;;;;0.00;0.00;;;;;;;15.51;46.42;100079.41;4203693;33;33794;-83
2024/02/04 13:56:47;;;;;;;0.10;0.10;;;;;;;15.74;46.14;100077.19;4222957;33;33573;-83
2024/02/04 13:59:16;;;;;;;0.00;0.00;;;;;;;15.54;46.50;100083.69;4196377;33;33010;-83
2024/02/04 14:01:43;;;;;;;0.00;0.00;;;;;;;15.37;46.72;100087.34;4230224;33;33511;-83
2024/02/04 14:04:12;;;;;;;0.20;0.20;;;;;;;15.69;46.33;100081.94;4202113;33;32688;-83
2024/02/04 14:06:40;;;;;;;0.00;0.00;;;;;;;15.26;46.86;100065.84;4224719;33;34574;-83
2024/02/04 14:09:08;;;;;;;0.00;0.00;;;;;;;15.07;47.62;100069.56;4213478;33;33319;-83
2024/02/04 14:11:36;;;;;;;0.00;0.00;;;;;;;15.45;47.02;100054.97;4211866;33;34564;-83
2024/02/04 14:14:04;;;;;;;0.00;0.00;;;;;;;15.82;46.05;100064.28;4213971;33;32815;-83
2024/02/04 14:16:31;;;;;;;0.00;0.00;;;;;;;15.59;46.55;100052.34;4213044;33;34598;-83
2024/02/04 14:18:59;;;;;;;0.00;0.00;;;;;;;15.86;46.08;100064.00;4211108;33;32448;-83
2024/02/04 14:21:28;;;;;;;0.03;0.03;;;;;;;15.49;46.94;100057.34;4220934;33;33208;-83
2024/02/04 14:23:56;;;;;;;0.10;0.10;;;;;;;16.00;45.99;100063.16;4210485;33;33458;-83
2024/02/04 14:26:24;;;;;;;0.00;0.00;;;;;;;15.85;46.65;100058.75;4208760;33;35545;-83
2024/02/04 14:28:51;;;;;;;0.00;0.00;;;;;;;16.21;45.95;100055.62;4212936;33;35126;-83
2024/02/04 14:31:21;;;;;;;0.00;0.00;;;;;;;15.91;46.51;100060.22;4210872;33;33216;-83
2024/02/04 14:33:50;;;;;;;0.00;0.00;;;;;;;15.84;46.73;100051.72;4200635;33;33890;-83
2024/02/04 14:36:18;;;;;;;0.00;0.00;;;;;;;15.73;46.95;100049.72;4212128;33;35691;-83
2024/02/04 14:38:46;;;;;;;0.00;0.00;;;;;;;15.82;46.60;100037.66;4230695;33;33645;-83
2024/02/04 14:41:14;;;;;;;0.20;0.20;;;;;;;15.73;46.96;100041.72;4224449;33;34780;-83